createdAt,value
2023-01-29T00:01:46.228Z,0.00
2023-01-29T00:06:46.172Z,0.00
2023-01-29T00:11:46.088Z,0.00
2023-01-29T00:16:53.018Z,0.00
2023-01-29T00:21:45.928Z,0.00
2023-01-29T00:26:45.914Z,0.00
2023-01-29T00:31:46.043Z,0.00
2023-01-29T00:36:45.759Z,0.00
2023-01-29T00:41:45.712Z,0.00
2023-01-29T00:46:45.799Z,0.00
2023-01-29T00:51:45.557Z,0.00
2023-01-29T00:56:45.507Z,0.00
2023-01-29T01:01:45.500Z,0.00
2023-01-29T01:06:45.362Z,0.00
2023-01-29T01:11:45.323Z,0.00
2023-01-29T01:16:45.249Z,0.00
2023-01-29T01:21:45.196Z,0.00
2023-01-29T01:26:45.115Z,0.00
2023-01-29T01:31:45.053Z,0.00
2023-01-29T01:36:45.022Z,0.00
2023-01-29T01:41:44.953Z,0.00
2023-01-29T01:46:44.833Z,0.00
2023-01-29T01:51:44.767Z,0.00
2023-01-29T01:56:44.698Z,0.00
2023-01-29T02:01:44.687Z,0.00
2023-01-29T02:06:44.616Z,0.00
2023-01-29T02:11:44.522Z,0.00
2023-01-29T02:16:44.458Z,0.00
2023-01-29T02:21:44.449Z,0.00
2023-01-29T02:26:44.333Z,0.00
2023-01-29T02:31:44.320Z,0.00
2023-01-29T02:36:44.214Z,0.00
2023-01-29T02:41:44.116Z,0.00
2023-01-29T02:46:44.080Z,0.00
2023-01-29T02:51:43.986Z,0.00
2023-01-29T02:56:43.957Z,0.00
2023-01-29T03:01:43.881Z,0.00
2023-01-29T03:06:43.916Z,0.00
2023-01-29T03:11:43.742Z,0.00
2023-01-29T03:16:43.783Z,0.00
2023-01-29T03:21:43.582Z,0.00
2023-01-29T03:26:43.600Z,0.00
2023-01-29T03:31:43.539Z,0.00
2023-01-29T03:36:43.410Z,0.00
2023-01-29T03:41:43.365Z,0.00
2023-01-29T03:46:43.347Z,0.00
2023-01-29T03:51:43.223Z,0.00
2023-01-29T03:56:43.166Z,0.00
2023-01-29T04:01:43.135Z,0.00
2023-01-29T04:06:43.046Z,0.00
2023-01-29T04:11:43.018Z,0.00
2023-01-29T04:16:42.981Z,0.00
2023-01-29T04:21:42.935Z,0.00
2023-01-29T04:26:42.781Z,0.00
2023-01-29T04:31:42.777Z,0.00
2023-01-29T04:36:42.719Z,0.00
2023-01-29T04:41:42.608Z,0.00
2023-01-29T04:46:42.573Z,0.00
2023-01-29T04:51:42.471Z,0.00
2023-01-29T04:56:42.454Z,0.00
2023-01-29T05:01:42.357Z,0.00
2023-01-29T05:06:42.330Z,0.00
2023-01-29T05:11:42.224Z,0.00
2023-01-29T05:16:42.203Z,0.00
2023-01-29T05:21:42.097Z,0.00
2023-01-29T05:26:42.013Z,0.00
2023-01-29T05:31:41.968Z,0.00
2023-01-29T05:36:41.907Z,0.00
2023-01-29T05:41:41.852Z,0.00
2023-01-29T05:46:41.795Z,0.00
2023-01-29T05:51:41.697Z,0.00
2023-01-29T05:56:41.652Z,0.00
2023-01-29T06:01:41.629Z,4.00
2023-01-29T06:06:41.470Z,0.00
2023-01-29T06:11:41.442Z,4.00
2023-01-29T06:16:41.399Z,8.00
2023-01-29T06:21:41.334Z,12.00
2023-01-29T06:26:41.244Z,20.00
2023-01-29T06:31:41.379Z,32.00
2023-01-29T06:36:41.123Z,52.00
2023-01-29T06:41:41.061Z,88.00
2023-01-29T06:46:40.995Z,116.00
2023-01-29T06:51:40.939Z,180.00
2023-01-29T06:56:40.902Z,264.00
2023-01-29T07:01:40.832Z,360.00
2023-01-29T07:06:40.793Z,464.00
2023-01-29T07:11:40.693Z,568.00
2023-01-29T07:16:40.719Z,608.00
2023-01-29T07:21:40.905Z,676.00
2023-01-29T07:26:40.588Z,740.00
2023-01-29T07:31:40.460Z,724.00
2023-01-29T07:36:40.386Z,804.00
2023-01-29T07:41:40.292Z,1040.00
2023-01-29T07:46:40.200Z,1252.00
2023-01-29T07:51:40.494Z,1540.00
2023-01-29T07:56:40.070Z,2040.00
2023-01-29T08:01:40.025Z,2836.00
2023-01-29T08:06:39.987Z,3476.00
2023-01-29T08:11:39.905Z,3840.00
2023-01-29T08:16:39.901Z,4072.00
2023-01-29T08:21:39.794Z,4088.00
2023-01-29T08:26:39.722Z,3620.00
2023-01-29T08:31:39.684Z,3100.00
2023-01-29T08:36:39.706Z,2812.00
2023-01-29T08:41:39.591Z,2748.00
2023-01-29T08:46:39.404Z,2616.00
2023-01-29T08:51:39.407Z,2768.00
2023-01-29T08:56:40.078Z,2360.00
2023-01-29T09:01:39.300Z,2572.00
2023-01-29T09:06:39.162Z,3028.00
2023-01-29T09:11:39.107Z,3076.00
2023-01-29T09:16:39.089Z,2888.00
2023-01-29T09:21:39.323Z,4204.00
2023-01-29T09:26:39.042Z,4468.00
2023-01-29T09:31:38.981Z,4908.00
2023-01-29T09:36:38.737Z,3848.00
2023-01-29T09:41:38.755Z,3584.00
2023-01-29T09:46:38.631Z,3780.00
2023-01-29T09:51:38.585Z,3664.00
2023-01-29T09:56:38.519Z,4016.00
2023-01-29T10:01:38.560Z,4420.00
2023-01-29T10:06:38.363Z,4892.00
2023-01-29T10:11:38.316Z,5064.00
2023-01-29T10:16:38.301Z,5032.00
2023-01-29T10:21:38.186Z,5080.00
2023-01-29T10:26:38.175Z,5468.00
2023-01-29T10:31:38.175Z,4844.00
2023-01-29T10:36:37.977Z,4040.00
2023-01-29T10:41:37.882Z,3488.00
2023-01-29T10:46:37.959Z,3824.00
2023-01-29T10:51:37.800Z,4576.00
2023-01-29T10:56:37.782Z,4940.00
2023-01-29T11:01:37.680Z,5112.00
2023-01-29T11:06:37.579Z,5192.00
2023-01-29T11:11:37.748Z,5148.00
2023-01-29T11:16:37.502Z,5036.00
2023-01-29T11:21:37.388Z,5280.00
2023-01-29T11:26:37.398Z,4900.00
2023-01-29T11:31:37.380Z,4680.00
2023-01-29T11:36:37.201Z,5960.00
2023-01-29T11:41:37.170Z,6360.00
2023-01-29T11:46:37.157Z,5588.00
2023-01-29T11:51:37.032Z,4356.00
2023-01-29T11:56:37.044Z,4496.00
2023-01-29T12:01:36.892Z,4968.00
2023-01-29T12:06:36.874Z,4412.00
2023-01-29T12:11:36.777Z,5092.00
2023-01-29T12:16:36.693Z,5604.00
2023-01-29T12:21:36.912Z,5496.00
2023-01-29T12:26:36.680Z,5204.00
2023-01-29T12:31:36.489Z,5128.00
2023-01-29T12:36:36.473Z,4904.00
2023-01-29T12:41:36.366Z,4592.00
2023-01-29T12:46:36.330Z,4616.00
2023-01-29T12:51:36.211Z,4600.00
2023-01-29T12:56:36.138Z,4332.00
2023-01-29T13:01:36.194Z,4280.00
2023-01-29T13:06:36.134Z,4284.00
2023-01-29T13:11:36.282Z,3892.00
2023-01-29T13:16:35.965Z,4004.00
2023-01-29T13:21:35.811Z,3896.00
2023-01-29T13:26:35.810Z,3480.00
2023-01-29T13:31:35.704Z,3352.00
2023-01-29T13:36:35.618Z,3104.00
2023-01-29T13:41:35.535Z,3020.00
2023-01-29T13:46:35.532Z,2800.00
2023-01-29T13:51:35.566Z,2572.00
2023-01-29T13:56:35.474Z,2508.00
2023-01-29T14:01:35.274Z,2384.00
2023-01-29T14:06:39.996Z,2464.00
2023-01-29T14:11:35.244Z,2504.00
2023-01-29T14:16:35.253Z,2376.00
2023-01-29T14:21:34.981Z,2252.00
2023-01-29T14:26:34.984Z,2352.00
2023-01-29T14:31:34.914Z,2204.00
2023-01-29T14:36:34.792Z,1768.00
2023-01-29T14:41:34.837Z,1468.00
2023-01-29T14:46:34.742Z,1292.00
2023-01-29T14:51:34.610Z,1180.00
2023-01-29T14:56:34.660Z,1048.00
2023-01-29T15:01:34.480Z,956.00
2023-01-29T15:06:34.456Z,820.00
2023-01-29T15:11:34.499Z,684.00
2023-01-29T15:16:34.273Z,600.00
2023-01-29T15:21:34.214Z,500.00
2023-01-29T15:26:34.173Z,404.00
2023-01-29T15:31:34.172Z,312.00
2023-01-29T15:36:34.050Z,248.00
2023-01-29T15:41:33.963Z,192.00
2023-01-29T15:46:34.016Z,148.00
2023-01-29T15:51:33.886Z,104.00
2023-01-29T15:56:33.798Z,64.00
2023-01-29T16:01:33.761Z,36.00
2023-01-29T16:06:33.619Z,16.00
2023-01-29T16:11:33.539Z,4.00
2023-01-29T16:16:34.005Z,4.00
2023-01-29T16:21:33.476Z,4.00
2023-01-29T16:26:33.430Z,0.00
2023-01-29T16:31:33.417Z,0.00
2023-01-29T16:36:33.233Z,0.00
2023-01-29T16:41:33.167Z,0.00
2023-01-29T16:46:33.088Z,0.00
2023-01-29T16:51:33.031Z,0.00
2023-01-29T16:56:33.069Z,0.00
2023-01-29T17:01:32.893Z,0.00
2023-01-29T17:06:32.954Z,0.00
2023-01-29T17:11:33.500Z,0.00
2023-01-29T17:16:33.387Z,0.00
2023-01-29T17:21:32.632Z,0.00
2023-01-29T17:26:32.737Z,0.00
2023-01-29T17:31:32.675Z,0.00
2023-01-29T17:36:32.437Z,0.00
2023-01-29T17:41:33.189Z,0.00
2023-01-29T17:46:32.311Z,0.00
2023-01-29T17:51:32.317Z,0.00
2023-01-29T17:56:32.214Z,0.00
2023-01-29T18:01:32.211Z,0.00
2023-01-29T18:06:32.207Z,0.00
2023-01-29T18:11:31.994Z,0.00
2023-01-29T18:16:33.544Z,0.00
2023-01-29T18:21:32.677Z,0.00
2023-01-29T18:26:31.862Z,0.00
2023-01-29T18:31:32.224Z,0.00
2023-01-29T18:36:31.724Z,0.00
2023-01-29T18:41:31.564Z,0.00
2023-01-29T18:46:31.672Z,0.00
2023-01-29T18:51:32.217Z,0.00
2023-01-29T18:56:32.970Z,0.00
2023-01-29T19:01:31.568Z,0.00
2023-01-29T19:06:31.531Z,0.00
2023-01-29T19:11:31.255Z,0.00
2023-01-29T19:16:31.333Z,0.00
2023-01-29T19:21:31.126Z,0.00
2023-01-29T19:26:31.156Z,0.00
2023-01-29T19:31:31.043Z,0.00
2023-01-29T19:36:30.850Z,0.00
2023-01-29T19:41:30.890Z,0.00
2023-01-29T19:46:30.736Z,0.00
2023-01-29T19:51:30.880Z,0.00
2023-01-29T19:56:30.636Z,0.00
2023-01-29T20:01:30.540Z,0.00
2023-01-29T20:06:30.536Z,0.00
2023-01-29T20:11:30.815Z,0.00
2023-01-29T20:16:30.593Z,0.00
2023-01-29T20:21:30.484Z,0.00
2023-01-29T20:26:30.347Z,0.00
2023-01-29T20:31:31.291Z,0.00
2023-01-29T20:36:30.222Z,0.00
2023-01-29T20:41:30.154Z,0.00
2023-01-29T20:46:30.114Z,0.00
2023-01-29T20:51:29.901Z,0.00
2023-01-29T20:56:31.025Z,0.00
2023-01-29T21:01:30.825Z,0.00
2023-01-29T21:06:31.184Z,0.00
2023-01-29T21:11:29.653Z,0.00
2023-01-29T21:16:29.687Z,0.00
2023-01-29T21:21:29.940Z,0.00
2023-01-29T21:26:31.283Z,0.00
2023-01-29T21:31:29.456Z,0.00
2023-01-29T21:36:29.355Z,0.00
2023-01-29T21:41:29.972Z,0.00
2023-01-29T21:46:29.283Z,0.00
2023-01-29T21:51:29.329Z,0.00
2023-01-29T21:56:29.401Z,0.00
2023-01-29T22:01:38.179Z,0.00
2023-01-29T22:06:29.949Z,0.00
2023-01-29T22:11:28.852Z,0.00
2023-01-29T22:16:28.887Z,0.00
2023-01-29T22:21:28.767Z,0.00
2023-01-29T22:26:28.661Z,0.00
2023-01-29T22:31:28.565Z,0.00
2023-01-29T22:36:28.533Z,0.00
2023-01-29T22:41:28.446Z,0.00
2023-01-29T22:46:28.778Z,0.00
2023-01-29T22:51:28.335Z,0.00
2023-01-29T22:56:28.392Z,0.00
2023-01-29T23:01:28.283Z,0.00
2023-01-29T23:06:28.155Z,0.00
2023-01-29T23:11:28.170Z,0.00
2023-01-29T23:16:28.306Z,0.00
2023-01-29T23:21:28.001Z,0.00
2023-01-29T23:26:27.970Z,0.00
2023-01-29T23:31:27.877Z,0.00
2023-01-29T23:36:27.842Z,0.00
2023-01-29T23:41:27.683Z,0.00
2023-01-29T23:46:27.804Z,0.00
2023-01-29T23:51:27.686Z,0.00
2023-01-29T23:56:27.498Z,0.00
